createdAt,value
2019-01-20T00:00:46.991Z,13.35
2019-01-20T00:01:52.382Z,14.95
2019-01-20T00:02:57.728Z,14.75
2019-01-20T00:04:03.240Z,13.55
2019-01-20T00:05:09.884Z,10.98
2019-01-20T00:06:15.125Z,12.88
2019-01-20T00:07:20.549Z,15.15
2019-01-20T00:08:25.748Z,12.20
2019-01-20T00:09:31.104Z,14.05
2019-01-20T00:10:36.666Z,13.38
2019-01-20T00:11:42.046Z,14.45
2019-01-20T00:12:53.472Z,15.63
2019-01-20T00:14:14.024Z,15.60
2019-01-20T00:15:20.028Z,16.70
2019-01-20T00:16:25.603Z,14.80
2019-01-20T00:17:31.015Z,18.42
2019-01-20T00:18:36.306Z,20.92
2019-01-20T00:19:41.662Z,17.32
2019-01-20T00:20:46.870Z,13.83
2019-01-20T00:21:52.128Z,16.30
2019-01-20T00:22:57.479Z,17.12
2019-01-20T00:24:02.762Z,12.90
2019-01-20T00:25:12.832Z,13.80
2019-01-20T00:26:18.381Z,15.70
2019-01-20T00:27:23.840Z,13.88
2019-01-20T00:28:29.281Z,19.75
2019-01-20T00:29:34.742Z,13.68
2019-01-20T00:30:40.276Z,12.47
2019-01-20T00:31:45.508Z,13.48
2019-01-20T00:32:50.812Z,15.70
2019-01-20T00:33:57.239Z,12.93
2019-01-20T00:35:02.828Z,12.95
2019-01-20T00:36:08.148Z,12.25
2019-01-20T00:37:13.587Z,12.95
2019-01-20T00:38:19.006Z,12.82
2019-01-20T00:39:25.531Z,12.55
2019-01-20T00:40:31.075Z,12.63
2019-01-20T00:41:36.339Z,14.28
2019-01-20T00:42:41.948Z,12.55
2019-01-20T00:43:47.204Z,12.75
2019-01-20T00:45:02.388Z,10.68
2019-01-20T00:46:01.814Z,14.70
2019-01-20T00:47:07.670Z,15.20
2019-01-20T00:48:12.980Z,12.40
2019-01-20T00:49:18.375Z,15.23
2019-01-20T00:50:23.957Z,9.75
2019-01-20T00:51:29.396Z,15.35
2019-01-20T00:52:35.406Z,10.93
2019-01-20T00:53:40.974Z,13.03
2019-01-20T00:54:46.775Z,10.45
2019-01-20T00:55:52.039Z,11.97
2019-01-20T00:56:57.259Z,13.53
2019-01-20T00:58:02.970Z,11.55
2019-01-20T00:59:09.076Z,15.18
2019-01-20T01:00:20.658Z,11.93
2019-01-20T01:01:25.835Z,13.13
2019-01-20T01:02:31.237Z,14.47
2019-01-20T01:03:36.516Z,15.15
2019-01-20T01:04:41.936Z,13.10
2019-01-20T01:05:47.263Z,12.43
2019-01-20T01:06:53.655Z,12.75
2019-01-20T01:08:01.090Z,15.35
2019-01-20T01:09:08.898Z,14.75
2019-01-20T01:10:14.392Z,15.05
2019-01-20T01:11:19.842Z,13.25
2019-01-20T01:12:26.430Z,13.28
2019-01-20T01:13:31.757Z,17.55
2019-01-20T01:14:37.024Z,13.13
2019-01-20T01:15:42.193Z,13.15
2019-01-20T01:16:47.394Z,13.30
2019-01-20T01:17:52.666Z,13.18
2019-01-20T01:18:57.909Z,11.75
2019-01-20T01:20:03.574Z,14.58
2019-01-20T01:21:11.234Z,13.32
2019-01-20T01:22:16.488Z,11.85
2019-01-20T01:23:21.824Z,17.35
2019-01-20T01:24:27.132Z,12.53
2019-01-20T01:25:32.419Z,17.07
2019-01-20T01:26:37.693Z,15.60
2019-01-20T01:27:43.164Z,15.23
2019-01-20T01:28:48.394Z,14.70
2019-01-20T01:29:53.515Z,12.98
2019-01-20T01:30:58.778Z,14.00
2019-01-20T01:32:04.127Z,15.38
2019-01-20T01:33:09.640Z,14.45
2019-01-20T01:34:15.005Z,12.90
2019-01-20T01:35:20.269Z,12.73
2019-01-20T01:36:25.562Z,13.18
2019-01-20T01:37:30.971Z,12.40
2019-01-20T01:38:36.289Z,17.25
2019-01-20T01:39:41.669Z,13.43
2019-01-20T01:40:47.014Z,14.03
2019-01-20T01:41:52.398Z,15.58
2019-01-20T01:42:57.664Z,15.45
2019-01-20T01:44:02.897Z,16.97
2019-01-20T01:45:10.882Z,14.70
2019-01-20T01:46:16.125Z,15.80
2019-01-20T01:47:21.429Z,17.25
2019-01-20T01:48:26.809Z,19.20
2019-01-20T01:49:32.180Z,14.60
2019-01-20T01:50:37.355Z,15.95
2019-01-20T01:51:42.532Z,17.30
2019-01-20T01:52:47.814Z,15.15
2019-01-20T01:53:53.235Z,15.72
2019-01-20T01:54:58.392Z,14.18
2019-01-20T01:56:03.563Z,15.45
2019-01-20T01:57:08.801Z,14.90
2019-01-20T01:58:14.058Z,14.20
2019-01-20T01:59:19.278Z,15.65
2019-01-20T02:00:24.833Z,14.35
2019-01-20T02:01:30.159Z,16.10
2019-01-20T02:02:35.409Z,17.67
2019-01-20T02:03:42.280Z,18.00
2019-01-20T02:04:47.659Z,18.73
2019-01-20T02:05:52.767Z,16.32
2019-01-20T02:06:58.026Z,16.45
2019-01-20T02:08:03.346Z,14.28
2019-01-20T02:09:09.324Z,15.90
2019-01-20T02:10:17.886Z,22.90
2019-01-20T02:11:23.047Z,18.55
2019-01-20T02:12:28.603Z,15.63
2019-01-20T02:13:33.960Z,15.20
2019-01-20T02:14:39.135Z,15.38
2019-01-20T02:15:44.488Z,14.80
2019-01-20T02:16:49.858Z,15.80
2019-01-20T02:17:55.192Z,12.70
2019-01-20T02:19:00.408Z,17.40
2019-01-20T02:20:07.087Z,18.37
2019-01-20T02:21:12.329Z,18.05
2019-01-20T02:22:20.688Z,21.10
2019-01-20T02:23:27.780Z,14.80
2019-01-20T02:24:32.958Z,16.77
2019-01-20T02:25:39.260Z,15.30
2019-01-20T02:26:44.572Z,16.52
2019-01-20T02:27:51.453Z,16.62
2019-01-20T02:28:56.739Z,14.38
2019-01-20T02:30:02.004Z,15.65
2019-01-20T02:31:08.558Z,16.17
2019-01-20T02:32:13.899Z,17.75
2019-01-20T02:33:19.115Z,14.70
2019-01-20T02:34:24.454Z,16.65
2019-01-20T02:35:31.861Z,22.93
2019-01-20T02:36:37.039Z,17.92
2019-01-20T02:37:42.453Z,15.93
2019-01-20T02:38:47.534Z,16.85
2019-01-20T02:39:52.752Z,15.60
2019-01-20T02:40:58.072Z,18.70
2019-01-20T02:42:03.335Z,16.55
2019-01-20T02:43:08.735Z,15.53
2019-01-20T02:44:13.963Z,15.28
2019-01-20T02:45:19.173Z,18.82
2019-01-20T02:46:24.455Z,14.75
2019-01-20T02:47:29.700Z,13.75
2019-01-20T02:48:34.863Z,15.70
2019-01-20T02:49:41.319Z,15.13
2019-01-20T02:50:46.638Z,14.60
2019-01-20T02:51:53.382Z,16.00
2019-01-20T02:53:00.606Z,13.83
2019-01-20T02:54:05.827Z,13.45
2019-01-20T02:55:11.203Z,20.52
2019-01-20T02:56:17.171Z,17.20
2019-01-20T02:57:22.365Z,18.17
2019-01-20T02:58:27.564Z,19.92
2019-01-20T02:59:32.916Z,16.20
2019-01-20T03:00:38.202Z,18.45
2019-01-20T03:01:43.538Z,15.08
2019-01-20T03:02:49.985Z,18.37
2019-01-20T03:03:55.262Z,17.80
2019-01-20T03:05:00.513Z,17.12
2019-01-20T03:06:05.944Z,19.10
2019-01-20T03:07:11.199Z,16.87
2019-01-20T03:08:16.483Z,20.32
2019-01-20T03:09:21.709Z,15.85
2019-01-20T03:10:27.023Z,14.30
2019-01-20T03:11:32.289Z,14.00
2019-01-20T03:12:37.584Z,14.78
2019-01-20T03:13:42.800Z,15.18
2019-01-20T03:14:48.120Z,14.25
2019-01-20T03:15:53.465Z,15.03
2019-01-20T03:16:58.742Z,15.20
2019-01-20T03:18:03.928Z,12.98
2019-01-20T03:19:11.890Z,15.32
2019-01-20T03:20:19.548Z,14.40
2019-01-20T03:21:25.700Z,14.95
2019-01-20T03:22:30.960Z,15.45
2019-01-20T03:23:36.142Z,16.42
2019-01-20T03:24:41.452Z,14.63
2019-01-20T03:25:46.656Z,13.58
2019-01-20T03:26:52.151Z,14.00
2019-01-20T03:27:57.361Z,12.93
2019-01-20T03:29:02.625Z,15.32
2019-01-20T03:30:12.361Z,14.87
2019-01-20T03:31:17.605Z,15.05
2019-01-20T03:32:22.915Z,12.88
2019-01-20T03:33:28.189Z,13.95
2019-01-20T03:34:33.619Z,12.23
2019-01-20T03:35:39.934Z,16.23
2019-01-20T03:36:45.219Z,15.60
2019-01-20T03:37:50.396Z,12.45
2019-01-20T03:38:55.624Z,13.90
2019-01-20T03:40:00.792Z,13.78
2019-01-20T03:41:06.011Z,13.70
2019-01-20T03:42:12.101Z,16.85
2019-01-20T03:43:17.684Z,15.03
2019-01-20T03:44:22.856Z,14.73
2019-01-20T03:45:28.205Z,15.45
2019-01-20T03:46:33.497Z,17.10
2019-01-20T03:47:38.837Z,12.43
2019-01-20T03:48:44.107Z,19.70
2019-01-20T03:49:49.366Z,19.35
2019-01-20T03:50:54.625Z,12.63
2019-01-20T03:51:59.901Z,16.60
2019-01-20T03:53:05.222Z,14.68
2019-01-20T03:54:10.487Z,14.80
2019-01-20T03:55:16.611Z,18.50
2019-01-20T03:56:21.940Z,12.30
2019-01-20T03:57:28.387Z,13.10
2019-01-20T03:58:33.579Z,13.90
2019-01-20T03:59:38.813Z,14.38
2019-01-20T04:00:44.044Z,14.05
2019-01-20T04:01:49.345Z,11.95
2019-01-20T04:03:04.491Z,13.15
2019-01-20T04:04:09.845Z,15.28
2019-01-20T04:05:15.012Z,14.95
2019-01-20T04:06:20.227Z,14.45
2019-01-20T04:07:25.501Z,15.72
2019-01-20T04:08:30.736Z,16.12
2019-01-20T04:09:36.004Z,13.58
2019-01-20T04:10:41.320Z,15.72
2019-01-20T04:11:46.599Z,16.73
2019-01-20T04:12:51.907Z,16.25
2019-01-20T04:13:57.055Z,12.90
2019-01-20T04:15:02.267Z,15.85
2019-01-20T04:16:07.548Z,18.57
2019-01-20T04:17:12.952Z,16.95
2019-01-20T04:18:18.251Z,14.83
2019-01-20T04:19:23.430Z,21.73
2019-01-20T04:20:28.724Z,19.15
2019-01-20T04:21:34.904Z,16.75
2019-01-20T04:22:40.246Z,16.80
2019-01-20T04:23:45.486Z,20.68
2019-01-20T04:24:50.751Z,16.02
2019-01-20T04:25:56.001Z,14.23
2019-01-20T04:27:01.262Z,16.65
2019-01-20T04:28:06.544Z,20.15
2019-01-20T04:29:11.797Z,19.80
2019-01-20T04:30:19.087Z,18.80
2019-01-20T04:31:24.351Z,15.32
2019-01-20T04:32:29.542Z,15.13
2019-01-20T04:33:34.683Z,16.02
2019-01-20T04:34:39.929Z,19.25
2019-01-20T04:35:45.236Z,16.17
2019-01-20T04:36:50.492Z,18.25
2019-01-20T04:37:55.675Z,14.55
2019-01-20T04:39:00.868Z,15.75
2019-01-20T04:40:10.543Z,18.45
2019-01-20T04:41:15.855Z,15.83
2019-01-20T04:42:28.777Z,14.70
2019-01-20T04:43:27.829Z,17.07
2019-01-20T04:44:33.029Z,17.10
2019-01-20T04:45:38.337Z,15.88
2019-01-20T04:46:43.716Z,16.57
2019-01-20T04:47:49.004Z,16.55
2019-01-20T04:48:54.207Z,15.08
2019-01-20T04:49:59.455Z,19.48
2019-01-20T04:51:04.764Z,15.90
2019-01-20T04:52:10.002Z,16.17
2019-01-20T04:53:15.251Z,17.25
2019-01-20T04:54:20.541Z,17.42
2019-01-20T04:55:25.884Z,14.93
2019-01-20T04:56:31.169Z,16.70
2019-01-20T04:57:36.430Z,15.00
2019-01-20T04:58:41.805Z,14.83
2019-01-20T04:59:47.036Z,14.58
2019-01-20T05:00:52.287Z,13.85
2019-01-20T05:01:57.486Z,17.10
2019-01-20T05:03:03.054Z,16.45
2019-01-20T05:04:08.347Z,19.00
2019-01-20T05:05:13.640Z,14.58
2019-01-20T05:06:18.869Z,17.55
2019-01-20T05:07:24.123Z,17.65
2019-01-20T05:08:29.371Z,17.98
2019-01-20T05:09:34.667Z,14.18
2019-01-20T05:10:39.918Z,17.27
2019-01-20T05:11:45.237Z,17.17
2019-01-20T05:12:50.432Z,15.43
2019-01-20T05:13:55.777Z,15.63
2019-01-20T05:15:01.017Z,16.40
2019-01-20T05:16:06.276Z,15.58
2019-01-20T05:17:11.542Z,15.50
2019-01-20T05:18:16.663Z,15.18
2019-01-20T05:19:21.900Z,16.82
2019-01-20T05:20:27.080Z,15.35
2019-01-20T05:21:32.350Z,17.70
2019-01-20T05:22:37.602Z,17.00
2019-01-20T05:23:42.980Z,15.50
2019-01-20T05:24:48.247Z,16.55
2019-01-20T05:25:53.464Z,16.65
2019-01-20T05:26:58.771Z,14.28
2019-01-20T05:28:04.039Z,16.67
2019-01-20T05:29:09.147Z,14.33
2019-01-20T05:30:17.313Z,14.85
2019-01-20T05:31:22.575Z,16.95
2019-01-20T05:32:27.857Z,17.17
2019-01-20T05:33:33.032Z,13.25
2019-01-20T05:34:38.274Z,14.50
2019-01-20T05:35:43.577Z,12.75
2019-01-20T05:36:48.855Z,12.70
2019-01-20T05:37:54.080Z,14.18
2019-01-20T05:38:59.369Z,12.68
2019-01-20T05:40:05.822Z,12.53
2019-01-20T05:41:11.141Z,12.60
2019-01-20T05:42:19.437Z,13.53
2019-01-20T05:43:24.703Z,14.60
2019-01-20T05:44:30.054Z,16.57
2019-01-20T05:45:35.347Z,15.03
2019-01-20T05:46:40.652Z,17.25
2019-01-20T05:47:45.879Z,14.30
2019-01-20T05:48:51.150Z,19.80
2019-01-20T05:49:56.353Z,15.85
2019-01-20T05:51:01.612Z,12.78
2019-01-20T05:52:06.847Z,15.03
2019-01-20T05:53:12.057Z,15.15
2019-01-20T05:54:17.354Z,12.88
2019-01-20T05:55:22.640Z,14.73
2019-01-20T05:56:27.874Z,14.60
2019-01-20T05:57:33.198Z,13.30
2019-01-20T05:58:38.392Z,16.77
2019-01-20T05:59:43.661Z,17.35
2019-01-20T06:00:49.005Z,15.20
2019-01-20T06:01:54.254Z,12.82
2019-01-20T06:02:59.444Z,14.33
2019-01-20T06:04:04.543Z,15.10
2019-01-20T06:05:09.863Z,18.05
2019-01-20T06:06:15.051Z,17.90
2019-01-20T06:07:20.380Z,16.97
2019-01-20T06:08:25.681Z,16.95
2019-01-20T06:09:30.946Z,13.62
2019-01-20T06:10:36.178Z,17.42
2019-01-20T06:11:41.468Z,17.23
2019-01-20T06:12:53.640Z,14.95
2019-01-20T06:13:53.646Z,14.98
2019-01-20T06:14:58.905Z,15.88
2019-01-20T06:16:04.224Z,16.65
2019-01-20T06:17:09.405Z,15.08
2019-01-20T06:18:14.800Z,13.18
2019-01-20T06:19:20.035Z,14.78
2019-01-20T06:20:25.294Z,13.98
2019-01-20T06:21:30.560Z,16.15
2019-01-20T06:22:35.884Z,18.75
2019-01-20T06:23:41.137Z,15.55
2019-01-20T06:24:46.450Z,15.45
2019-01-20T06:25:51.636Z,13.88
2019-01-20T06:26:56.837Z,16.82
2019-01-20T06:28:02.067Z,13.88
2019-01-20T06:29:07.344Z,15.03
2019-01-20T06:30:18.709Z,16.35
2019-01-20T06:31:23.960Z,12.05
2019-01-20T06:32:29.322Z,14.18
2019-01-20T06:33:34.596Z,16.27
2019-01-20T06:34:39.893Z,17.75
2019-01-20T06:35:45.274Z,19.37
2019-01-20T06:36:50.672Z,25.35
2019-01-20T06:37:55.928Z,24.95
2019-01-20T06:39:01.288Z,25.05
2019-01-20T06:40:08.423Z,24.32
2019-01-20T06:41:13.717Z,24.60
2019-01-20T06:42:18.967Z,20.32
2019-01-20T06:43:24.164Z,22.10
2019-01-20T06:44:29.409Z,21.45
2019-01-20T06:45:34.740Z,18.52
2019-01-20T06:46:39.899Z,18.95
2019-01-20T06:47:45.203Z,17.60
2019-01-20T06:48:50.509Z,16.35
2019-01-20T06:49:55.657Z,17.48
2019-01-20T06:51:00.872Z,17.07
2019-01-20T06:52:06.086Z,17.17
2019-01-20T06:53:11.403Z,17.95
2019-01-20T06:54:16.701Z,15.05
2019-01-20T06:55:21.958Z,15.48
2019-01-20T06:56:27.359Z,15.70
2019-01-20T06:57:33.566Z,16.12
2019-01-20T06:58:38.854Z,15.08
2019-01-20T06:59:44.148Z,15.48
2019-01-20T07:00:49.404Z,16.52
2019-01-20T07:01:54.638Z,18.62
2019-01-20T07:02:59.957Z,16.30
2019-01-20T07:04:05.308Z,18.73
2019-01-20T07:05:10.803Z,15.35
2019-01-20T07:06:16.064Z,20.23
2019-01-20T07:07:21.347Z,15.70
2019-01-20T07:08:26.537Z,16.00
2019-01-20T07:09:31.787Z,14.93
2019-01-20T07:10:37.000Z,13.43
2019-01-20T07:11:42.199Z,13.98
2019-01-20T07:12:47.450Z,16.32
2019-01-20T07:13:52.757Z,16.73
2019-01-20T07:14:57.824Z,16.97
2019-01-20T07:16:03.075Z,14.07
2019-01-20T07:17:08.357Z,16.20
2019-01-20T07:18:13.625Z,17.70
2019-01-20T07:19:18.749Z,15.20
2019-01-20T07:20:23.905Z,16.97
2019-01-20T07:21:29.177Z,18.25
2019-01-20T07:22:34.530Z,13.15
2019-01-20T07:23:39.775Z,14.68
2019-01-20T07:24:45.674Z,15.05
2019-01-20T07:25:50.986Z,13.08
2019-01-20T07:26:56.293Z,12.60
2019-01-20T07:28:01.508Z,17.07
2019-01-20T07:29:06.673Z,17.23
2019-01-20T07:30:14.802Z,15.58
2019-01-20T07:31:19.963Z,15.70
2019-01-20T07:32:25.228Z,17.87
2019-01-20T07:33:30.458Z,13.28
2019-01-20T07:34:35.693Z,17.42
2019-01-20T07:35:40.921Z,17.17
2019-01-20T07:36:46.151Z,15.83
2019-01-20T07:37:51.635Z,15.88
2019-01-20T07:38:56.907Z,16.77
2019-01-20T07:40:02.167Z,16.30
2019-01-20T07:41:07.326Z,17.67
2019-01-20T07:42:12.491Z,14.10
2019-01-20T07:43:17.671Z,16.90
2019-01-20T07:44:22.837Z,18.60
2019-01-20T07:45:27.928Z,22.17
2019-01-20T07:46:33.124Z,22.22
2019-01-20T07:47:38.330Z,25.10
2019-01-20T07:48:43.601Z,24.12
2019-01-20T07:49:48.894Z,23.02
2019-01-20T07:50:54.227Z,26.55
2019-01-20T07:51:59.369Z,22.58
2019-01-20T07:53:04.663Z,23.25
2019-01-20T07:54:09.839Z,25.85
2019-01-20T07:55:15.024Z,23.87
2019-01-20T07:56:20.286Z,27.35
2019-01-20T07:57:25.566Z,23.73
2019-01-20T07:58:30.772Z,23.10
2019-01-20T07:59:36.039Z,25.75
2019-01-20T08:00:41.331Z,18.05
2019-01-20T08:01:46.596Z,22.90
2019-01-20T08:02:51.859Z,19.60
2019-01-20T08:03:57.167Z,20.68
2019-01-20T08:05:02.443Z,17.60
2019-01-20T08:06:08.768Z,19.98
2019-01-20T08:07:13.942Z,18.40
2019-01-20T08:08:19.222Z,18.95
2019-01-20T08:09:24.312Z,17.95
2019-01-20T08:10:30.528Z,19.70
2019-01-20T08:11:35.746Z,16.57
2019-01-20T08:12:40.962Z,16.52
2019-01-20T08:13:46.310Z,15.93
2019-01-20T08:14:51.564Z,17.87
2019-01-20T08:15:56.836Z,18.30
2019-01-20T08:17:02.018Z,19.15
2019-01-20T08:18:07.270Z,17.45
2019-01-20T08:19:12.624Z,18.85
2019-01-20T08:20:19.564Z,22.32
2019-01-20T08:21:24.766Z,22.10
2019-01-20T08:22:30.019Z,21.57
2019-01-20T08:23:35.199Z,20.45
2019-01-20T08:24:40.489Z,28.75
2019-01-20T08:25:45.762Z,22.87
2019-01-20T08:26:51.048Z,25.92
2019-01-20T08:27:56.327Z,24.40
2019-01-20T08:29:01.614Z,26.27
2019-01-20T08:30:09.041Z,28.15
2019-01-20T08:31:14.321Z,21.90
2019-01-20T08:32:19.555Z,24.85
2019-01-20T08:33:24.769Z,21.60
2019-01-20T08:34:30.062Z,21.85
2019-01-20T08:35:35.347Z,18.07
2019-01-20T08:36:40.608Z,18.30
2019-01-20T08:37:45.879Z,22.48
2019-01-20T08:38:51.198Z,18.82
2019-01-20T08:39:57.588Z,19.00
2019-01-20T08:41:02.853Z,20.08
2019-01-20T08:42:09.069Z,20.25
2019-01-20T08:43:14.354Z,16.90
2019-01-20T08:44:19.980Z,18.73
2019-01-20T08:46:08.586Z,22.37
2019-01-20T08:47:23.920Z,19.17
2019-01-20T08:48:29.088Z,17.73
2019-01-20T08:49:34.424Z,15.43
2019-01-20T08:50:40.246Z,22.05
2019-01-20T08:51:45.573Z,16.85
2019-01-20T08:52:50.731Z,15.43
2019-01-20T08:53:56.340Z,14.87
2019-01-20T08:55:02.660Z,14.43
2019-01-20T08:56:08.190Z,15.40
2019-01-20T08:57:13.660Z,16.67
2019-01-20T08:58:18.942Z,17.42
2019-01-20T08:59:24.110Z,17.00
2019-01-20T09:00:29.395Z,16.55
2019-01-20T09:01:34.624Z,13.32
2019-01-20T09:02:40.414Z,16.20
2019-01-20T09:03:45.665Z,15.98
2019-01-20T09:04:50.952Z,14.23
2019-01-20T09:05:56.191Z,16.27
2019-01-20T09:07:01.528Z,14.07
2019-01-20T09:08:06.778Z,12.18
2019-01-20T09:09:12.277Z,15.32
2019-01-20T09:10:20.943Z,13.58
2019-01-20T09:11:26.280Z,15.00
2019-01-20T09:12:32.027Z,15.00
2019-01-20T09:13:39.863Z,15.43
2019-01-20T09:14:45.448Z,16.25
2019-01-20T09:15:51.031Z,13.05
2019-01-20T09:16:59.717Z,11.48
2019-01-20T09:18:05.021Z,13.95
2019-01-20T09:19:11.598Z,11.43
2019-01-20T09:20:16.924Z,12.63
2019-01-20T09:21:22.300Z,14.10
2019-01-20T09:22:27.858Z,16.77
2019-01-20T09:23:33.224Z,14.95
2019-01-20T09:24:40.024Z,14.13
2019-01-20T09:25:45.373Z,13.70
2019-01-20T09:26:50.781Z,17.92
2019-01-20T09:27:56.323Z,14.93
2019-01-20T09:29:01.626Z,15.93
2019-01-20T09:30:10.772Z,15.68
2019-01-20T09:31:17.888Z,14.28
2019-01-20T09:32:23.389Z,13.68
2019-01-20T09:33:31.998Z,17.77
2019-01-20T09:34:37.564Z,15.45
2019-01-20T09:35:43.218Z,16.27
2019-01-20T09:36:48.660Z,15.98
2019-01-20T09:37:53.975Z,14.60
2019-01-20T09:38:59.354Z,13.85
2019-01-20T09:40:05.472Z,17.25
2019-01-20T09:41:10.804Z,19.17
2019-01-20T09:42:16.231Z,14.98
2019-01-20T09:43:21.520Z,14.68
2019-01-20T09:44:26.846Z,18.07
2019-01-20T09:45:33.983Z,13.72
2019-01-20T09:46:39.250Z,16.57
2019-01-20T09:47:44.661Z,15.00
2019-01-20T09:48:49.873Z,19.40
2019-01-20T09:49:55.329Z,16.20
2019-01-20T09:51:00.702Z,14.68
2019-01-20T09:52:06.124Z,15.78
2019-01-20T09:53:11.429Z,14.18
2019-01-20T09:54:16.817Z,15.28
2019-01-20T09:55:22.208Z,15.88
2019-01-20T09:56:27.650Z,16.23
2019-01-20T09:57:32.924Z,13.40
2019-01-20T09:58:38.546Z,15.40
2019-01-20T09:59:45.103Z,18.15
2019-01-20T10:00:50.417Z,13.58
2019-01-20T10:01:55.850Z,15.28
2019-01-20T10:03:01.152Z,15.13
2019-01-20T10:04:06.637Z,14.40
2019-01-20T10:05:11.970Z,17.27
2019-01-20T10:06:20.289Z,15.95
2019-01-20T10:07:25.922Z,17.42
2019-01-20T10:08:31.258Z,15.88
2019-01-20T10:09:36.851Z,16.73
2019-01-20T10:10:42.107Z,14.23
2019-01-20T10:11:47.695Z,14.43
2019-01-20T10:12:53.010Z,17.23
2019-01-20T10:13:58.466Z,14.05
2019-01-20T10:15:04.633Z,19.85
2019-01-20T10:16:09.933Z,13.50
2019-01-20T10:17:15.244Z,21.35
2019-01-20T10:18:20.583Z,16.67
2019-01-20T10:19:25.915Z,18.67
2019-01-20T10:20:32.733Z,15.03
2019-01-20T10:21:38.339Z,15.13
2019-01-20T10:22:44.157Z,15.97
2019-01-20T10:23:49.491Z,14.75
2019-01-20T10:24:54.856Z,14.10
2019-01-20T10:26:00.038Z,13.57
2019-01-20T10:27:05.517Z,14.60
2019-01-20T10:28:13.584Z,13.40
2019-01-20T10:29:18.874Z,14.77
2019-01-20T10:30:26.831Z,14.93
2019-01-20T10:31:32.903Z,15.00
2019-01-20T10:32:38.195Z,16.43
2019-01-20T10:33:43.627Z,15.97
2019-01-20T10:34:50.227Z,15.90
2019-01-20T10:36:00.653Z,14.90
2019-01-20T10:37:06.627Z,15.87
2019-01-20T10:38:12.180Z,13.87
2019-01-20T10:39:17.472Z,14.47
2019-01-20T10:40:22.886Z,13.65
2019-01-20T10:41:28.224Z,12.13
2019-01-20T10:42:33.571Z,14.90
2019-01-20T10:43:38.760Z,14.60
2019-01-20T10:44:44.277Z,13.87
2019-01-20T10:45:49.680Z,11.93
2019-01-20T10:46:55.051Z,13.23
2019-01-20T10:48:00.280Z,13.70
2019-01-20T10:49:05.787Z,11.40
2019-01-20T10:50:12.169Z,16.30
2019-01-20T10:51:17.383Z,13.60
2019-01-20T10:52:22.957Z,14.37
2019-01-20T10:53:28.350Z,14.30
2019-01-20T10:54:36.267Z,11.20
2019-01-20T10:55:41.758Z,13.07
2019-01-20T10:56:47.051Z,11.67
2019-01-20T10:57:52.689Z,14.97
2019-01-20T10:58:58.001Z,13.00
2019-01-20T11:00:04.729Z,14.00
2019-01-20T11:01:10.008Z,18.30
2019-01-20T11:02:15.462Z,13.73
2019-01-20T11:03:20.832Z,16.37
2019-01-20T11:04:26.810Z,14.80
2019-01-20T11:05:32.840Z,12.97
2019-01-20T11:06:38.103Z,14.37
2019-01-20T11:07:43.474Z,16.60
2019-01-20T11:08:48.705Z,12.20
2019-01-20T11:09:53.917Z,12.70
2019-01-20T11:10:59.131Z,14.83
2019-01-20T11:12:04.670Z,12.03
2019-01-20T11:13:10.679Z,11.10
2019-01-20T11:14:16.024Z,10.57
2019-01-20T11:15:22.569Z,12.60
2019-01-20T11:16:27.796Z,14.43
2019-01-20T11:17:33.391Z,15.57
2019-01-20T11:18:38.725Z,12.90
2019-01-20T11:19:44.130Z,11.63
2019-01-20T11:20:49.343Z,12.70
2019-01-20T11:21:54.819Z,13.93
2019-01-20T11:23:00.068Z,11.80
2019-01-20T11:24:05.425Z,12.80
2019-01-20T11:25:13.535Z,11.27
2019-01-20T11:26:19.772Z,11.17
2019-01-20T11:27:25.233Z,13.43
2019-01-20T11:28:30.560Z,16.50
2019-01-20T11:29:35.954Z,13.80
2019-01-20T11:30:41.234Z,12.53
2019-01-20T11:31:46.557Z,12.53
2019-01-20T11:32:51.849Z,13.40
2019-01-20T11:33:57.192Z,12.30
2019-01-20T11:35:02.783Z,13.77
2019-01-20T11:36:08.064Z,11.80
2019-01-20T11:37:13.515Z,11.07
2019-01-20T11:38:18.913Z,13.40
2019-01-20T11:39:24.265Z,11.27
2019-01-20T11:40:29.555Z,12.37
2019-01-20T11:41:34.770Z,12.20
2019-01-20T11:42:40.101Z,10.53
2019-01-20T11:43:45.448Z,11.03
2019-01-20T11:44:50.699Z,15.30
2019-01-20T11:45:56.053Z,12.47
2019-01-20T11:47:01.456Z,12.87
2019-01-20T11:48:07.697Z,11.03
2019-01-20T11:49:13.032Z,12.13
2019-01-20T11:50:19.097Z,10.97
2019-01-20T11:51:24.347Z,11.03
2019-01-20T11:52:29.987Z,11.97
2019-01-20T11:53:35.313Z,12.73
2019-01-20T11:54:40.656Z,10.37
2019-01-20T11:55:45.988Z,12.93
2019-01-20T11:56:51.307Z,11.57
2019-01-20T11:57:56.690Z,11.00
2019-01-20T11:59:02.308Z,12.47
2019-01-20T12:00:11.127Z,11.13
2019-01-20T12:01:16.498Z,12.73
2019-01-20T12:02:22.484Z,12.03
2019-01-20T12:03:28.111Z,13.00
2019-01-20T12:04:33.419Z,13.97
2019-01-20T12:05:41.143Z,12.53
2019-01-20T12:06:46.516Z,10.30
2019-01-20T12:07:51.899Z,10.10
2019-01-20T12:08:57.659Z,12.17
2019-01-20T12:10:03.054Z,11.27
2019-01-20T12:11:08.524Z,11.00
2019-01-20T12:12:13.708Z,10.73
2019-01-20T12:13:27.053Z,10.87
2019-01-20T12:14:32.716Z,12.60
2019-01-20T12:15:38.170Z,12.57
2019-01-20T12:16:43.583Z,13.90
2019-01-20T12:17:49.008Z,9.97
2019-01-20T12:18:54.245Z,12.77
2019-01-20T12:19:59.633Z,11.70
2019-01-20T12:21:04.913Z,10.60
2019-01-20T12:22:10.175Z,11.40
2019-01-20T12:23:15.479Z,10.47
2019-01-20T12:24:20.742Z,11.43
2019-01-20T12:25:26.114Z,13.03
2019-01-20T12:26:31.380Z,10.40
2019-01-20T12:27:36.730Z,11.53
2019-01-20T12:28:42.047Z,12.60
2019-01-20T12:29:51.849Z,12.80
2019-01-20T12:30:55.316Z,12.63
2019-01-20T12:32:00.646Z,13.97
2019-01-20T12:33:06.262Z,12.40
2019-01-20T12:34:11.588Z,13.50
2019-01-20T12:35:16.844Z,14.63
2019-01-20T12:36:22.257Z,12.30
2019-01-20T12:37:30.446Z,9.20
2019-01-20T12:38:35.754Z,11.47
2019-01-20T12:39:41.018Z,10.60
2019-01-20T12:40:49.334Z,13.40
2019-01-20T12:41:55.604Z,10.93
2019-01-20T12:43:00.732Z,11.33
2019-01-20T12:44:06.010Z,10.93
2019-01-20T12:45:11.360Z,9.67
2019-01-20T12:46:16.621Z,11.13
2019-01-20T12:47:21.846Z,10.33
2019-01-20T12:48:27.154Z,10.60
2019-01-20T12:49:32.444Z,10.60
2019-01-20T12:50:37.692Z,12.30
2019-01-20T12:51:42.959Z,13.57
2019-01-20T12:52:48.256Z,14.03
2019-01-20T12:53:53.538Z,11.60
2019-01-20T12:54:58.753Z,11.07
2019-01-20T12:56:04.021Z,12.03
2019-01-20T12:57:09.230Z,11.93
2019-01-20T12:58:14.669Z,11.17
2019-01-20T12:59:19.919Z,9.90
2019-01-20T13:00:25.198Z,11.77
2019-01-20T13:01:30.481Z,10.77
2019-01-20T13:02:35.740Z,11.63
2019-01-20T13:03:41.057Z,9.27
2019-01-20T13:04:46.359Z,12.70
2019-01-20T13:05:51.631Z,11.10
2019-01-20T13:06:56.875Z,11.83
2019-01-20T13:08:02.754Z,11.93
2019-01-20T13:09:09.627Z,11.43
2019-01-20T13:10:16.445Z,11.07
2019-01-20T13:11:21.705Z,10.53
2019-01-20T13:12:26.948Z,11.10
2019-01-20T13:13:32.162Z,11.23
2019-01-20T13:14:39.160Z,10.07
2019-01-20T13:15:45.529Z,9.70
2019-01-20T13:16:50.780Z,12.57
2019-01-20T13:17:56.114Z,11.07
2019-01-20T13:19:01.370Z,10.50
2019-01-20T13:20:09.314Z,11.03
2019-01-20T13:21:14.522Z,10.53
2019-01-20T13:22:19.693Z,10.07
2019-01-20T13:23:25.023Z,11.40
2019-01-20T13:24:30.296Z,9.67
2019-01-20T13:25:35.608Z,12.07
2019-01-20T13:26:40.805Z,12.07
2019-01-20T13:27:46.113Z,9.70
2019-01-20T13:28:51.378Z,10.80
2019-01-20T13:29:56.740Z,10.23
2019-01-20T13:31:02.063Z,9.23
2019-01-20T13:32:08.146Z,9.90
2019-01-20T13:33:13.314Z,9.80
2019-01-20T13:34:18.516Z,10.23
2019-01-20T13:35:24.413Z,12.73
2019-01-20T13:36:29.603Z,12.63
2019-01-20T13:37:34.998Z,11.77
2019-01-20T13:38:40.257Z,15.37
2019-01-20T13:39:45.453Z,9.37
2019-01-20T13:41:09.177Z,10.63
2019-01-20T13:42:14.456Z,11.40
2019-01-20T13:43:19.810Z,14.23
2019-01-20T13:44:25.035Z,10.13
2019-01-20T13:45:30.310Z,10.47
2019-01-20T13:46:35.494Z,9.63
2019-01-20T13:47:40.760Z,10.53
2019-01-20T13:48:45.930Z,10.63
2019-01-20T13:49:51.260Z,11.93
2019-01-20T13:50:56.512Z,10.07
2019-01-20T13:52:03.514Z,9.53
2019-01-20T13:53:08.733Z,11.10
2019-01-20T13:54:14.009Z,10.37
2019-01-20T13:55:19.629Z,9.13
2019-01-20T13:56:24.887Z,11.20
2019-01-20T13:57:30.222Z,11.93
2019-01-20T13:58:35.438Z,10.83
2019-01-20T13:59:40.721Z,13.27
2019-01-20T14:00:47.124Z,10.20
2019-01-20T14:01:52.473Z,12.20
2019-01-20T14:02:57.755Z,13.77
2019-01-20T14:04:03.109Z,10.57
2019-01-20T14:05:10.263Z,12.83
2019-01-20T14:06:15.518Z,11.13
2019-01-20T14:07:20.793Z,11.40